Mackenzie, Canada
Current Conditions -  °F | °C
As of 10:00 AM on Monday 26 Jan 2015 (Local Time) from CYZY Reporting Station
Light Rain Light Rain  
Wind Chill: 30°   Ceiling: 800
Heat Index: 34°   Visibility: 9mi
Dew Point: 34°   Wind: 5mph
Humidity: 100%   Direction: 140°SE
Pressure: 29.83"   Gusts: NA
Location:  55.33°N, 123.09°W
Report Text: CYZY 261800Z AUTO 14004KT 9SM -RA BKN008 BKN049 OVC065 01/01 A2983 RMK SLP129
Loading
Personal Weather Stations






























Interactive Weather Map New forecast layout! Learn more

10-Day Weather Forecast

Advertisements
Track Severe Weather on mobile